Time;durP1;ratioP1;P1;durP2;ratioP2;P2;SDS_P1;SDS_P2;PMS_P1;PMS_P2;Temp;Humidity;BMP_temperature;BMP_pressure;BME280_temperature;BME280_humidity;BME280_pressure;Samples;Min_cycle;Max_cycle;Signal;HPM_P1;HPM_P2
2023/12/20 00:01:21;;;;;;;9.80;1.30;;;5.90;99.90;;;;;;5022540;28;20041;-67
2023/12/20 00:03:46;;;;;;;12.27;1.88;;;5.80;99.90;;;;;;5005894;28;20042;-67
2023/12/20 00:06:12;;;;;;;13.50;1.38;;;5.80;99.90;;;;;;5020889;28;20056;-67
2023/12/20 00:08:37;;;;;;;14.18;1.27;;;5.90;99.90;;;;;;5020954;28;20046;-67
2023/12/20 00:11:03;;;;;;;8.13;1.23;;;5.80;99.90;;;;;;5021162;28;20161;-67
2023/12/20 00:13:29;;;;;;;11.23;1.95;;;5.90;99.90;;;;;;5020524;28;20491;-67
2023/12/20 00:15:54;;;;;;;13.20;2.35;;;5.80;99.90;;;;;;5032663;28;20095;-67
2023/12/20 00:18:20;;;;;;;10.10;1.70;;;5.80;99.90;;;;;;5019723;28;20100;-66
2023/12/20 00:20:46;;;;;;;10.52;1.92;;;5.80;99.90;;;;;;5019363;28;20080;-67
2023/12/20 00:23:11;;;;;;;9.27;1.98;;;5.80;99.90;;;;;;5021931;28;20048;-67
2023/12/20 00:25:37;;;;;;;9.65;1.00;;;5.80;99.90;;;;;;5019863;28;20060;-67
2023/12/20 00:28:03;;;;;;;12.23;2.22;;;5.80;99.90;;;;;;5017956;28;20496;-67
2023/12/20 00:30:29;;;;;;;7.80;1.65;;;5.70;99.90;;;;;;5019772;28;20037;-67
2023/12/20 00:32:55;;;;;;;12.27;0.98;;;5.70;99.90;;;;;;5019724;28;20095;-67
2023/12/20 00:35:21;;;;;;;7.03;0.80;;;5.70;99.90;;;;;;5021377;28;20061;-67
2023/12/20 00:37:47;;;;;;;7.65;1.00;;;5.60;99.90;;;;;;5022461;28;20045;-67
2023/12/20 00:40:12;;;;;;;10.45;1.00;;;5.60;99.90;;;;;;5021228;28;20044;-67
2023/12/20 00:42:38;;;;;;;11.13;1.95;;;5.60;99.90;;;;;;5016114;28;20415;-66
2023/12/20 00:45:04;;;;;;;8.63;1.27;;;5.50;99.90;;;;;;5020001;28;20073;-67
2023/12/20 00:47:31;;;;;;;7.88;0.93;;;5.50;99.90;;;;;;5035714;28;20057;-67
2023/12/20 00:49:57;;;;;;;11.68;1.38;;;5.50;99.90;;;;;;5020321;28;20061;-67
2023/12/20 00:52:23;;;;;;;11.43;1.60;;;5.50;99.90;;;;;;5022517;28;20400;-67
2023/12/20 00:54:49;;;;;;;11.82;1.20;;;5.50;99.90;;;;;;5014911;28;20044;-67
2023/12/20 00:57:15;;;;;;;10.80;1.35;;;5.50;99.90;;;;;;5002472;28;20045;-66
2023/12/20 00:59:41;;;;;;;18.50;1.70;;;5.60;99.90;;;;;;5019069;28;20037;-67
2023/12/20 01:02:06;;;;;;;14.35;1.50;;;5.60;99.90;;;;;;5019803;28;20030;-67
2023/12/20 01:04:33;;;;;;;15.57;2.20;;;5.60;99.90;;;;;;5020000;28;20070;-67
2023/12/20 01:06:58;;;;;;;16.00;1.50;;;5.60;99.90;;;;;;5035817;28;20073;-67
2023/12/20 01:09:26;;;;;;;17.30;1.75;;;5.70;99.90;;;;;;5019143;28;20080;-67
2023/12/20 01:11:52;;;;;;;11.60;1.23;;;5.70;99.90;;;;;;5018221;28;20068;-67
2023/12/20 01:14:18;;;;;;;11.95;1.58;;;5.60;99.90;;;;;;5039400;28;20041;-67
2023/12/20 01:16:44;;;;;;;8.73;1.27;;;5.60;99.90;;;;;;5018162;28;20053;-67
2023/12/20 01:19:09;;;;;;;14.77;1.90;;;5.70;99.90;;;;;;5020284;28;20026;-67
2023/12/20 01:21:35;;;;;;;10.43;1.27;;;5.70;99.90;;;;;;5018999;28;20061;-67
2023/12/20 01:24:01;;;;;;;11.82;1.45;;;5.70;99.90;;;;;;5006069;28;20131;-67
2023/12/20 01:26:27;;;;;;;13.20;1.52;;;5.70;99.90;;;;;;5020267;28;20033;-67
2023/12/20 01:28:53;;;;;;;10.93;1.90;;;5.70;99.90;;;;;;5018937;28;20096;-67
2023/12/20 01:31:19;;;;;;;12.70;1.20;;;5.70;99.90;;;;;;5018740;28;20041;-67
2023/12/20 01:33:45;;;;;;;12.23;1.50;;;5.70;99.90;;;;;;5018396;28;20607;-67
2023/12/20 01:36:11;;;;;;;11.45;1.83;;;5.60;99.90;;;;;;5021042;28;20060;-67
2023/12/20 01:38:37;;;;;;;13.02;1.73;;;5.70;99.90;;;;;;5017355;28;20485;-67
2023/12/20 01:41:03;;;;;;;15.07;1.55;;;6.20;99.90;;;;;;5019896;28;20416;-66
2023/12/20 01:43:29;;;;;;;7.43;1.10;;;5.70;99.90;;;;;;5018824;28;20037;-67
2023/12/20 01:45:59;;;;;;;18.20;2.40;;;5.60;99.90;;;;;;5017072;28;20045;-67
2023/12/20 01:48:25;;;;;;;20.52;2.92;;;5.60;99.90;;;;;;5020932;28;20109;-67
2023/12/20 01:50:52;;;;;;;11.40;1.55;;;5.60;99.90;;;;;;5016148;28;20042;-67
2023/12/20 01:53:20;;;;;;;17.20;2.20;;;5.60;99.90;;;;;;5020796;28;20052;-67
2023/12/20 01:55:47;;;;;;;15.02;1.73;;;5.60;99.90;;;;;;5018458;28;20057;-67
2023/12/20 01:58:14;;;;;;;14.35;1.70;;;5.70;99.90;;;;;;5020569;28;20049;-67
2023/12/20 02:00:39;;;;;;;18.48;2.17;;;5.70;99.90;;;;;;5017589;28;20034;-67
2023/12/20 02:03:05;;;;;;;21.10;2.05;;;5.70;99.90;;;;;;5019398;28;20677;-67
2023/12/20 02:05:32;;;;;;;15.13;2.08;;;5.80;99.90;;;;;;5016993;28;20081;-67
2023/12/20 02:07:58;;;;;;;16.70;2.03;;;5.80;99.90;;;;;;5018382;28;20563;-67
2023/12/20 02:10:24;;;;;;;13.32;2.58;;;6.10;99.90;;;;;;5021983;28;20124;-67
2023/12/20 02:12:50;;;;;;;12.13;1.70;;;5.90;99.90;;;;;;5021628;28;20088;-67
2023/12/20 02:15:16;;;;;;;15.32;1.92;;;6.30;99.90;;;;;;5022804;28;20073;-67
2023/12/20 02:17:43;;;;;;;11.55;1.63;;;5.90;99.90;;;;;;5021010;28;20046;-67
2023/12/20 02:20:08;;;;;;;16.92;1.60;;;6.00;99.90;;;;;;5022166;28;20053;-67
2023/12/20 02:22:34;;;;;;;13.85;1.95;;;6.00;99.90;;;;;;5023718;28;20033;-67
2023/12/20 02:25:00;;;;;;;11.90;2.50;;;6.00;99.90;;;;;;5019828;28;20685;-67
2023/12/20 02:27:25;;;;;;;13.88;1.50;;;6.10;99.90;;;;;;5024910;28;20045;-67
2023/12/20 02:29:51;;;;;;;21.42;2.65;;;6.10;99.90;;;;;;5022800;28;20049;-67
2023/12/20 02:32:18;;;;;;;19.50;2.28;;;6.10;99.90;;;;;;5025698;28;20120;-67
2023/12/20 02:34:43;;;;;;;14.65;1.58;;;6.10;99.90;;;;;;5020058;28;20053;-67
2023/12/20 02:37:09;;;;;;;20.45;2.20;;;6.10;99.90;;;;;;5021781;28;20053;-67
2023/12/20 02:39:35;;;;;;;15.38;2.30;;;6.10;99.90;;;;;;5026432;28;20048;-67
2023/12/20 02:42:00;;;;;;;19.83;3.17;;;6.10;99.90;;;;;;5021011;28;20037;-67
2023/12/20 02:44:29;;;;;;;24.58;2.63;;;6.10;99.90;;;;;;5024312;28;20042;-67
2023/12/20 02:46:55;;;;;;;14.15;3.95;;;6.10;99.90;;;;;;5026084;28;20046;-67
2023/12/20 02:49:21;;;;;;;19.55;2.83;;;6.10;99.90;;;;;;5023519;28;20095;-67
2023/12/20 02:51:47;;;;;;;18.58;2.50;;;6.10;99.90;;;;;;5021121;28;20162;-67
2023/12/20 02:54:12;;;;;;;16.98;2.00;;;6.10;99.90;;;;;;5020571;28;20057;-66
2023/12/20 02:56:38;;;;;;;20.52;2.40;;;6.10;99.90;;;;;;5019932;28;20041;-67
2023/12/20 02:59:08;;;;;;;18.05;2.47;;;6.10;99.90;;;;;;5024283;28;20039;-67
2023/12/20 03:01:34;;;;;;;19.65;2.80;;;6.10;99.90;;;;;;5011897;28;20484;-67
2023/12/20 03:04:00;;;;;;;16.50;2.60;;;6.10;99.90;;;;;;5036515;28;20049;-67
2023/12/20 03:06:26;;;;;;;26.70;2.80;;;6.20;99.90;;;;;;5021945;28;20037;-67
2023/12/20 03:08:52;;;;;;;17.27;2.40;;;6.40;99.90;;;;;;5020499;28;20115;-67
2023/12/20 03:11:17;;;;;;;21.85;2.55;;;6.20;99.90;;;;;;5018806;28;20168;-67
2023/12/20 03:13:43;;;;;;;20.90;2.65;;;6.20;99.90;;;;;;5024371;28;20057;-67
2023/12/20 03:16:10;;;;;;;22.23;3.15;;;6.10;99.90;;;;;;5023707;28;20052;-67
2023/12/20 03:18:35;;;;;;;23.50;2.70;;;6.10;99.90;;;;;;5026116;28;20132;-67
2023/12/20 03:21:05;;;;;;;24.45;3.35;;;6.10;99.90;;;;;;5019419;28;20043;-67
2023/12/20 03:23:32;;;;;;;22.67;3.08;;;6.10;99.90;;;;;;5024385;28;20048;-67
2023/12/20 03:25:58;;;;;;;21.92;3.47;;;6.10;99.90;;;;;;5020824;28;20304;-67
2023/12/20 03:28:24;;;;;;;18.10;4.20;;;6.10;99.90;;;;;;5020223;28;20396;-67
2023/12/20 03:30:49;;;;;;;22.30;3.80;;;6.10;99.90;;;;;;5023728;28;20029;-67
2023/12/20 03:33:15;;;;;;;26.83;3.55;;;6.10;99.90;;;;;;5021909;28;20041;-67
2023/12/20 03:35:41;;;;;;;28.45;5.18;;;6.10;99.90;;;;;;5036290;28;20081;-67
2023/12/20 03:38:07;;;;;;;23.92;3.63;;;6.10;99.90;;;;;;5017398;28;20073;-67
2023/12/20 03:40:33;;;;;;;19.85;4.10;;;6.10;99.90;;;;;;5022332;28;20088;-67
2023/12/20 03:42:59;;;;;;;25.88;4.43;;;6.20;99.90;;;;;;5020339;28;20427;-67
2023/12/20 03:45:25;;;;;;;24.05;2.92;;;6.20;99.90;;;;;;5020356;28;20048;-67
2023/12/20 03:47:54;;;;;;;23.95;3.70;;;6.30;99.90;;;;;;5022307;28;20080;-67
2023/12/20 03:50:22;;;;;;;23.15;4.05;;;6.30;99.90;;;;;;5021023;28;20073;-67
2023/12/20 03:52:47;;;;;;;24.38;2.80;;;6.30;99.90;;;;;;5039072;28;20084;-67
2023/12/20 03:55:13;;;;;;;18.70;2.72;;;6.30;99.90;;;;;;5010146;28;20069;-67
2023/12/20 03:57:39;;;;;;;21.88;3.42;;;6.30;99.90;;;;;;5021283;28;20057;-67
2023/12/20 04:00:10;;;;;;;20.20;2.85;;;6.30;99.90;;;;;;5018401;28;20069;-67
2023/12/20 04:02:39;;;;;;;19.10;3.05;;;6.40;99.90;;;;;;5021613;28;20065;-67
2023/12/20 04:05:06;;;;;;;19.15;3.17;;;6.30;99.90;;;;;;5021360;28;20159;-68
2023/12/20 04:07:32;;;;;;;20.05;3.90;;;6.30;99.90;;;;;;5021122;28;20038;-67
2023/12/20 04:09:58;;;;;;;26.88;4.28;;;6.30;99.90;;;;;;5023556;28;20467;-67
2023/12/20 04:12:24;;;;;;;23.38;4.70;;;6.30;99.90;;;;;;5019619;28;20077;-67
2023/12/20 04:14:49;;;;;;;23.70;3.58;;;6.30;99.90;;;;;;5019041;28;20052;-67
2023/12/20 04:17:18;;;;;;;24.63;4.35;;;6.30;99.90;;;;;;5019828;28;20049;-67
2023/12/20 04:19:43;;;;;;;18.83;2.80;;;6.40;99.90;;;;;;5020693;28;20064;-67
2023/12/20 04:22:09;;;;;;;21.63;4.38;;;6.40;99.90;;;;;;5021367;28;20490;-67
2023/12/20 04:24:35;;;;;;;22.27;3.50;;;6.40;99.90;;;;;;5017294;28;20045;-67
2023/12/20 04:27:01;;;;;;;29.40;3.90;;;6.40;99.90;;;;;;5017831;28;20107;-67
2023/12/20 04:29:27;;;;;;;20.33;3.40;;;6.40;99.90;;;;;;5017915;28;20443;-67
2023/12/20 04:31:53;;;;;;;24.50;3.60;;;6.50;99.90;;;;;;5024005;28;20038;-67
2023/12/20 04:34:19;;;;;;;18.63;2.80;;;6.80;99.90;;;;;;5020456;28;20033;-67
2023/12/20 04:36:45;;;;;;;27.80;5.38;;;6.50;99.90;;;;;;5019392;28;20060;-67
2023/12/20 04:39:12;;;;;;;20.40;3.42;;;6.50;99.90;;;;;;5017905;28;20030;-67
2023/12/20 04:41:39;;;;;;;26.20;4.38;;;6.50;99.90;;;;;;5023439;28;20049;-67
2023/12/20 04:44:06;;;;;;;21.83;3.90;;;6.50;99.90;;;;;;5023893;28;20440;-67
2023/12/20 04:46:32;;;;;;;23.50;3.70;;;6.50;99.90;;;;;;5017510;28;20041;-67
2023/12/20 04:48:58;;;;;;;25.58;4.15;;;6.60;99.90;;;;;;5036901;28;20506;-67
2023/12/20 04:51:24;;;;;;;23.25;3.00;;;6.50;99.90;;;;;;5020923;28;20104;-67
2023/12/20 04:53:49;;;;;;;21.40;3.72;;;6.50;99.90;;;;;;5019482;28;20662;-67
2023/12/20 04:56:15;;;;;;;27.60;3.60;;;6.50;99.90;;;;;;5015904;28;20077;-67
2023/12/20 04:58:42;;;;;;;21.55;3.88;;;6.60;99.90;;;;;;5020104;28;20049;-67
2023/12/20 05:01:08;;;;;;;21.50;3.95;;;6.50;99.90;;;;;;5021951;28;20128;-67
2023/12/20 05:03:34;;;;;;;25.73;3.63;;;6.60;99.90;;;;;;5031696;28;20037;-67
2023/12/20 05:06:00;;;;;;;17.60;3.00;;;6.60;99.90;;;;;;5020465;28;20048;-67
2023/12/20 05:08:26;;;;;;;25.77;4.25;;;6.70;99.90;;;;;;5018516;28;20045;-67
2023/12/20 05:10:54;;;;;;;22.20;4.68;;;6.70;99.90;;;;;;5020636;28;20523;-67
2023/12/20 05:13:20;;;;;;;28.77;3.55;;;6.70;99.90;;;;;;5017397;28;20037;-67
2023/12/20 05:15:45;;;;;;;17.83;3.40;;;6.70;99.90;;;;;;5020216;28;20161;-67
2023/12/20 05:18:11;;;;;;;19.27;3.60;;;6.70;99.90;;;;;;5018403;28;20034;-67
2023/12/20 05:20:37;;;;;;;26.00;5.10;;;6.70;99.90;;;;;;5018904;28;20069;-67
2023/12/20 05:23:02;;;;;;;17.23;3.75;;;6.70;99.90;;;;;;5006721;28;20117;-67
2023/12/20 05:25:28;;;;;;;24.10;3.90;;;6.80;99.90;;;;;;5016091;28;20120;-67
2023/12/20 05:27:54;;;;;;;21.15;3.58;;;6.80;99.90;;;;;;5021631;28;20060;-67
2023/12/20 05:30:20;;;;;;;26.30;4.88;;;6.90;99.90;;;;;;5017173;28;20044;-67
2023/12/20 05:32:46;;;;;;;16.67;4.18;;;6.80;99.90;;;;;;5020286;28;20044;-67
2023/12/20 05:35:11;;;;;;;22.27;3.85;;;6.90;99.90;;;;;;5020880;28;20128;-67
2023/12/20 05:37:37;;;;;;;16.95;4.38;;;6.90;99.90;;;;;;5017943;28;20080;-67
2023/12/20 05:40:04;;;;;;;24.33;3.55;;;6.90;99.90;;;;;;5019601;28;20120;-67
2023/12/20 05:42:30;;;;;;;19.00;3.38;;;6.90;99.90;;;;;;5004705;28;20744;-67
2023/12/20 05:44:55;;;;;;;26.27;3.90;;;6.90;99.90;;;;;;5027259;28;20152;-67
2023/12/20 05:47:21;;;;;;;24.48;5.00;;;7.00;99.90;;;;;;5028274;28;20087;-67
2023/12/20 05:49:47;;;;;;;19.73;3.17;;;7.00;99.90;;;;;;5042352;28;20484;-67
2023/12/20 05:52:13;;;;;;;19.70;3.97;;;7.00;99.90;;;;;;5025964;28;20184;-67
2023/12/20 05:54:38;;;;;;;19.63;3.55;;;7.00;99.90;;;;;;5025401;28;20049;-67
2023/12/20 05:57:04;;;;;;;22.05;3.78;;;7.10;99.90;;;;;;5028745;28;20079;-67
2023/12/20 05:59:30;;;;;;;23.13;3.97;;;7.10;99.90;;;;;;5022957;28;20041;-67
2023/12/20 06:01:56;;;;;;;22.17;3.53;;;7.10;99.90;;;;;;5028136;28;20072;-67
2023/12/20 06:04:21;;;;;;;27.55;4.82;;;7.10;99.90;;;;;;5025380;28;20029;-67
2023/12/20 06:06:47;;;;;;;22.70;4.30;;;7.10;99.90;;;;;;5027262;28;20044;-67
2023/12/20 06:09:12;;;;;;;18.90;3.00;;;7.10;99.90;;;;;;5026590;28;20046;-67
2023/12/20 06:11:38;;;;;;;22.92;3.72;;;7.10;99.90;;;;;;5025841;28;20045;-67
2023/12/20 06:14:04;;;;;;;22.08;3.55;;;7.20;99.90;;;;;;5026355;28;20041;-67
2023/12/20 06:16:30;;;;;;;19.42;3.10;;;7.10;99.90;;;;;;5013194;28;20499;-67
2023/12/20 06:18:56;;;;;;;28.27;4.20;;;7.10;99.90;;;;;;5026300;28;20046;-67
2023/12/20 06:21:21;;;;;;;30.15;3.80;;;7.20;99.90;;;;;;5023888;28;20038;-67
2023/12/20 06:23:47;;;;;;;24.30;4.03;;;7.10;99.90;;;;;;5015531;28;20041;-67
2023/12/20 06:26:13;;;;;;;22.63;4.15;;;7.20;99.90;;;;;;5026331;28;20488;-67
2023/12/20 06:28:38;;;;;;;24.80;3.50;;;7.30;99.90;;;;;;5024516;28;20048;-67
2023/12/20 06:31:04;;;;;;;22.88;3.28;;;7.30;99.90;;;;;;5026616;28;20036;-67
2023/12/20 06:33:30;;;;;;;23.25;3.80;;;7.20;99.90;;;;;;5028117;28;20038;-67
2023/12/20 06:35:57;;;;;;;18.23;3.75;;;7.20;99.90;;;;;;5026740;28;20041;-67
2023/12/20 06:38:23;;;;;;;20.02;3.28;;;7.40;99.90;;;;;;5028648;28;20042;-67
2023/12/20 06:40:49;;;;;;;19.67;3.45;;;7.30;99.90;;;;;;5041442;28;20162;-67
2023/12/20 06:43:14;;;;;;;17.77;2.95;;;7.30;99.90;;;;;;5023252;28;20260;-68
2023/12/20 06:45:40;;;;;;;25.98;4.63;;;7.30;99.90;;;;;;5026502;28;20156;-67
2023/12/20 06:48:06;;;;;;;25.40;4.22;;;7.30;99.90;;;;;;5025974;28;20041;-67
2023/12/20 06:50:32;;;;;;;20.50;3.80;;;7.30;99.90;;;;;;5027335;28;20068;-67
2023/12/20 06:52:58;;;;;;;19.00;3.15;;;7.40;99.90;;;;;;5022313;28;20080;-67
2023/12/20 06:55:23;;;;;;;17.75;3.50;;;7.40;99.90;;;;;;5024234;28;20041;-67
2023/12/20 06:57:49;;;;;;;20.40;3.58;;;7.40;99.90;;;;;;5022595;28;20049;-67
2023/12/20 07:00:15;;;;;;;21.02;3.67;;;7.40;99.90;;;;;;5020159;28;20957;-67
2023/12/20 07:02:41;;;;;;;23.88;3.58;;;7.40;99.90;;;;;;5022169;28;20496;-67
2023/12/20 07:05:07;;;;;;;23.65;3.80;;;7.40;99.90;;;;;;5019101;28;20041;-67
2023/12/20 07:07:33;;;;;;;32.90;4.25;;;7.40;99.90;;;;;;5022716;28;20084;-67
2023/12/20 07:09:58;;;;;;;20.73;4.13;;;7.40;99.90;;;;;;5022572;28;20034;-67
2023/12/20 07:12:24;;;;;;;26.10;3.85;;;7.40;99.90;;;;;;5016351;28;20124;-67
2023/12/20 07:14:50;;;;;;;20.77;3.80;;;7.40;99.90;;;;;;5020374;28;20503;-67
2023/12/20 07:17:16;;;;;;;24.83;5.75;;;7.40;99.90;;;;;;5021496;28;20077;-67
2023/12/20 07:19:42;;;;;;;34.67;5.10;;;7.40;99.90;;;;;;5025629;28;20033;-67
2023/12/20 07:22:08;;;;;;;18.40;4.25;;;7.40;99.90;;;;;;5023114;28;20037;-67
2023/12/20 07:24:34;;;;;;;27.92;4.18;;;7.40;99.90;;;;;;5023502;28;20037;-67
2023/12/20 07:27:00;;;;;;;20.20;3.85;;;7.50;99.90;;;;;;5022444;28;20056;-67
2023/12/20 07:29:26;;;;;;;23.27;4.05;;;7.50;99.90;;;;;;5021995;28;20041;-68
2023/12/20 07:31:53;;;;;;;21.73;3.25;;;7.40;99.90;;;;;;5022202;28;20045;-68
2023/12/20 07:34:22;;;;;;;25.45;4.45;;;7.40;99.90;;;;;;5019959;28;20491;-67
2023/12/20 07:36:48;;;;;;;21.63;4.22;;;7.50;99.90;;;;;;5019985;28;20080;-68
2023/12/20 07:39:14;;;;;;;26.40;4.97;;;7.50;99.90;;;;;;5016445;28;20176;-68
2023/12/20 07:41:40;;;;;;;26.15;4.90;;;7.50;99.90;;;;;;5019400;28;20038;-68
2023/12/20 07:44:07;;;;;;;22.90;4.28;;;7.50;99.90;;;;;;5019140;28;20061;-68
2023/12/20 07:46:33;;;;;;;20.85;3.60;;;7.50;99.90;;;;;;5018438;28;20049;-67
2023/12/20 07:48:59;;;;;;;24.10;3.92;;;7.50;99.90;;;;;;5016823;28;20044;-67
2023/12/20 07:51:25;;;;;;;21.85;3.53;;;7.50;99.90;;;;;;5017979;28;20045;-67
2023/12/20 07:53:51;;;;;;;27.42;4.25;;;7.50;99.90;;;;;;5009002;28;20500;-68
2023/12/20 07:56:18;;;;;;;27.50;4.47;;;7.50;99.90;;;;;;5012865;28;20045;-67
2023/12/20 07:58:44;;;;;;;24.45;4.18;;;7.50;99.90;;;;;;5018123;28;20479;-67
2023/12/20 08:01:11;;;;;;;22.83;3.92;;;7.60;99.90;;;;;;5015169;28;20037;-68
2023/12/20 08:03:37;;;;;;;18.92;4.00;;;8.40;99.90;;;;;;5013592;28;20592;-68
2023/12/20 08:06:03;;;;;;;19.23;4.68;;;7.60;99.90;;;;;;5016773;28;20041;-68
2023/12/20 08:08:28;;;;;;;18.65;3.67;;;7.60;99.90;;;;;;5001072;28;20403;-68
2023/12/20 08:10:54;;;;;;;22.88;4.15;;;7.60;99.90;;;;;;5015265;28;20050;-68
2023/12/20 08:13:24;;;;;;;26.05;3.63;;;7.60;99.90;;;;;;5015046;28;20078;-68
2023/12/20 08:15:50;;;;;;;24.00;4.45;;;7.60;99.90;;;;;;5016221;28;20042;-68
2023/12/20 08:18:16;;;;;;;21.17;3.67;;;7.90;99.90;;;;;;5014082;28;20376;-67
2023/12/20 08:20:41;;;;;;;28.75;5.00;;;7.70;99.90;;;;;;5016553;28;20037;-67
2023/12/20 08:23:07;;;;;;;19.95;2.85;;;7.70;99.90;;;;;;5013718;28;20040;-67
2023/12/20 08:25:32;;;;;;;18.90;4.03;;;7.70;99.90;;;;;;5015043;28;20133;-67
2023/12/20 08:27:58;;;;;;;20.95;3.60;;;7.70;99.90;;;;;;5019832;28;20537;-68
2023/12/20 08:30:24;;;;;;;17.60;3.33;;;7.70;99.90;;;;;;5013917;28;20041;-67
2023/12/20 08:32:50;;;;;;;20.58;4.15;;;7.70;99.90;;;;;;5023415;28;20049;-67
2023/12/20 08:35:17;;;;;;;27.05;5.18;;;7.70;99.90;;;;;;5013773;28;20365;-68
2023/12/20 08:37:43;;;;;;;23.67;3.95;;;7.70;99.90;;;;;;5015255;28;20045;-68
2023/12/20 08:40:09;;;;;;;15.45;2.75;;;7.80;99.90;;;;;;5014649;28;20096;-67
2023/12/20 08:42:34;;;;;;;21.92;4.95;;;7.80;99.90;;;;;;5019407;28;20176;-67
2023/12/20 08:45:00;;;;;;;20.42;3.67;;;7.80;99.90;;;;;;5018466;28;20567;-67
2023/12/20 08:47:25;;;;;;;28.40;3.92;;;7.80;99.90;;;;;;5018713;28;20065;-67
2023/12/20 08:49:56;;;;;;;20.10;3.90;;;7.80;99.90;;;;;;5019618;28;20052;-67
2023/12/20 08:52:24;;;;;;;23.63;4.28;;;7.90;99.90;;;;;;5013725;28;20076;-67
2023/12/20 08:54:53;;;;;;;22.92;5.03;;;7.80;99.90;;;;;;5016283;28;20038;-67
2023/12/20 08:57:23;;;;;;;19.15;3.15;;;7.80;99.90;;;;;;5019938;28;20048;-67
2023/12/20 08:59:50;;;;;;;21.17;4.03;;;7.90;99.90;;;;;;5017745;28;20045;-68
2023/12/20 09:02:16;;;;;;;18.02;2.85;;;7.90;99.90;;;;;;5016479;28;20499;-67
2023/12/20 09:04:42;;;;;;;18.75;3.65;;;7.90;99.90;;;;;;5014084;28;20044;-67
2023/12/20 09:07:22;;;;;;;17.00;3.97;;;8.00;99.90;;;;;;5015115;28;20029;-67
2023/12/20 09:09:48;;;;;;;19.13;3.63;;;8.00;99.90;;;;;;5021062;28;20569;-67
2023/12/20 09:12:13;;;;;;;17.73;3.42;;;8.00;99.90;;;;;;5021394;28;20042;-67
2023/12/20 09:14:39;;;;;;;13.57;2.65;;;8.10;99.90;;;;;;5020050;28;20543;-67
2023/12/20 09:17:04;;;;;;;18.15;2.90;;;8.10;99.90;;;;;;5013702;28;20124;-67
2023/12/20 09:19:30;;;;;;;19.83;3.47;;;8.10;99.90;;;;;;5032099;28;20092;-67
2023/12/20 09:21:56;;;;;;;19.83;4.10;;;8.10;99.90;;;;;;5017619;28;20044;-67
2023/12/20 09:24:21;;;;;;;17.83;3.45;;;8.10;99.90;;;;;;5018584;28;20089;-67
2023/12/20 09:26:47;;;;;;;23.70;4.38;;;8.10;99.90;;;;;;5016680;28;20484;-67
2023/12/20 09:29:15;;;;;;;23.67;3.97;;;8.20;99.90;;;;;;5019652;28;20025;-67
2023/12/20 09:31:41;;;;;;;15.73;2.78;;;8.20;99.90;;;;;;4995662;28;20087;-67
2023/12/20 09:34:07;;;;;;;19.38;3.05;;;8.20;99.90;;;;;;5014151;28;20550;-67
2023/12/20 09:36:35;;;;;;;17.42;3.78;;;8.30;99.90;;;;;;5015043;28;20045;-67
2023/12/20 09:39:01;;;;;;;14.35;2.35;;;8.40;99.90;;;;;;5018340;28;20139;-67
2023/12/20 09:41:31;;;;;;;10.25;1.88;;;8.40;99.90;;;;;;5016763;28;20473;-67
2023/12/20 09:44:00;;;;;;;7.53;1.23;;;8.30;99.90;;;;;;5014931;28;20060;-67
2023/12/20 09:46:29;;;;;;;5.68;0.95;;;8.30;99.90;;;;;;5018532;28;20034;-67
2023/12/20 09:48:56;;;;;;;8.40;0.80;;;8.10;99.90;;;;;;5016885;28;20060;-67
2023/12/20 09:51:21;;;;;;;6.70;1.02;;;7.90;99.90;;;;;;5018086;28;20124;-67
2023/12/20 09:53:48;;;;;;;5.22;1.08;;;7.70;99.90;;;;;;5012782;28;20517;-67
2023/12/20 09:56:15;;;;;;;7.90;0.98;;;7.60;99.90;;;;;;5013856;28;20052;-67
2023/12/20 09:58:40;;;;;;;4.30;0.60;;;7.40;99.90;;;;;;5016904;28;20403;-67
2023/12/20 10:01:07;;;;;;;6.47;0.63;;;7.30;99.90;;;;;;5013841;28;20038;-67
2023/12/20 10:03:34;;;;;;;9.93;1.40;;;7.20;99.90;;;;;;5018691;28;20055;-67
2023/12/20 10:06:00;;;;;;;8.20;0.90;;;7.10;99.90;;;;;;5018261;28;20112;-67
2023/12/20 10:08:26;;;;;;;6.88;1.10;;;7.10;99.90;;;;;;5016474;28;20380;-67
2023/12/20 10:10:52;;;;;;;6.22;1.33;;;7.00;99.90;;;;;;5013372;28;20439;-67
2023/12/20 10:13:17;;;;;;;9.95;1.10;;;7.00;99.90;;;;;;5029580;28;20049;-67
2023/12/20 10:15:43;;;;;;;6.38;0.55;;;7.00;99.90;;;;;;5015316;28;20053;-67
2023/12/20 10:18:09;;;;;;;7.35;1.27;;;7.00;99.90;;;;;;5015388;28;20172;-67
2023/12/20 10:20:35;;;;;;;6.70;0.85;;;6.90;99.90;;;;;;5016933;28;20045;-67
2023/12/20 10:23:01;;;;;;;7.88;1.42;;;6.90;99.90;;;;;;5011555;28;20512;-67
2023/12/20 10:25:27;;;;;;;6.45;0.75;;;6.90;99.90;;;;;;5022019;28;20042;-67
2023/12/20 10:28:21;;;;;;;7.20;1.33;;;6.90;99.90;;;;;;5013419;28;20068;-67
2023/12/20 10:30:47;;;;;;;5.53;0.77;;;6.90;99.90;;;;;;5017193;28;20049;-67
2023/12/20 10:33:12;;;;;;;8.70;1.90;;;6.90;99.90;;;;;;5021598;28;20041;-67
2023/12/20 10:35:39;;;;;;;6.18;0.70;;;6.90;99.90;;;;;;5019788;28;20052;-67
2023/12/20 10:38:06;;;;;;;7.13;1.13;;;6.90;99.90;;;;;;5022181;28;20077;-67
2023/12/20 10:40:38;;;;;;;7.10;0.85;;;6.90;99.90;;;;;;5015954;28;20046;-67
2023/12/20 10:43:05;;;;;;;7.65;1.33;;;6.90;99.90;;;;;;5019715;28;20144;-67
2023/12/20 10:45:30;;;;;;;5.32;0.80;;;7.00;99.90;;;;;;5018100;28;20092;-67
2023/12/20 10:47:59;;;;;;;7.57;1.52;;;6.90;99.90;;;;;;5006329;28;20161;-67
2023/12/20 10:50:26;;;;;;;6.88;0.82;;;6.90;99.90;;;;;;5022207;28;20487;-67
2023/12/20 10:52:55;;;;;;;7.10;1.25;;;7.00;99.90;;;;;;5019707;28;20140;-67
2023/12/20 10:55:21;;;;;;;7.68;0.88;;;7.00;99.90;;;;;;5022762;28;20045;-67
2023/12/20 10:57:51;;;;;;;9.65;1.67;;;7.10;99.90;;;;;;5029993;28;20125;-67
2023/12/20 11:00:18;;;;;;;6.13;0.75;;;7.00;99.90;;;;;;5019455;28;20530;-67
2023/12/20 11:02:44;;;;;;;8.45;1.20;;;7.00;99.90;;;;;;5016863;28;20038;-67
2023/12/20 11:05:15;;;;;;;11.13;1.20;;;7.10;99.90;;;;;;5017940;28;20342;-67
2023/12/20 11:07:50;;;;;;;8.63;1.65;;;7.10;99.90;;;;;;5018901;28;20488;-67
2023/12/20 11:10:25;;;;;;;8.50;0.65;;;7.10;99.90;;;;;;5016676;28;20742;-67
2023/12/20 11:13:03;;;;;;;7.50;1.30;;;7.20;99.90;;;;;;5018781;28;20049;-67
2023/12/20 11:15:29;;;;;;;13.35;1.10;;;7.40;99.90;;;;;;5015426;28;20050;-67
2023/12/20 11:17:56;;;;;;;4.70;0.90;;;7.20;99.90;;;;;;5018424;28;20041;-67
2023/12/20 11:20:23;;;;;;;7.65;0.80;;;7.30;99.90;;;;;;5024072;28;20081;-67
2023/12/20 11:22:56;;;;;;;7.50;1.55;;;7.30;99.90;;;;;;5016808;28;20069;-67
2023/12/20 11:25:21;;;;;;;10.10;1.20;;;7.30;99.90;;;;;;5014858;28;20583;-66
2023/12/20 11:28:09;;;;;;;10.75;1.52;;;7.40;99.90;;;;;;5020092;28;20065;-67
2023/12/20 11:30:48;;;;;;;7.07;1.23;;;7.40;99.90;;;;;;5018998;28;20487;-67
2023/12/20 11:33:15;;;;;;;12.25;1.63;;;7.40;99.90;;;;;;5018750;28;20135;-67
2023/12/20 11:35:41;;;;;;;6.00;0.90;;;7.40;99.90;;;;;;5019639;28;20123;-67
2023/12/20 11:38:10;;;;;;;8.70;1.98;;;7.50;99.90;;;;;;5023194;28;20720;-67
2023/12/20 11:40:36;;;;;;;8.70;1.27;;;7.40;99.90;;;;;;5017327;28;20415;-67
2023/12/20 11:43:04;;;;;;;12.65;1.77;;;7.40;99.90;;;;;;5020985;28;20132;-67
2023/12/20 11:45:30;;;;;;;8.05;1.27;;;7.50;99.90;;;;;;5021810;28;20038;-67
2023/12/20 11:47:57;;;;;;;11.38;1.58;;;7.50;99.90;;;;;;5021699;28;20500;-67
2023/12/20 11:50:24;;;;;;;9.38;1.10;;;7.60;99.90;;;;;;5021024;28;20049;-67
2023/12/20 11:52:51;;;;;;;12.43;1.20;;;8.30;99.90;;;;;;5023770;28;20052;-67
2023/12/20 11:55:17;;;;;;;11.40;1.45;;;7.60;99.90;;;;;;5022063;28;20065;-67
2023/12/20 11:57:43;;;;;;;9.65;1.30;;;7.60;99.90;;;;;;5020466;28;20897;-67
2023/12/20 12:00:10;;;;;;;7.78;1.40;;;7.60;99.90;;;;;;5016385;28;20053;-67
2023/12/20 12:02:35;;;;;;;8.57;1.13;;;7.50;99.90;;;;;;5020065;28;20117;-67
2023/12/20 12:05:01;;;;;;;6.80;1.45;;;7.60;99.90;;;;;;5019659;28;20524;-67
2023/12/20 12:07:27;;;;;;;9.70;1.50;;;7.60;99.90;;;;;;5023052;28;20042;-67
2023/12/20 12:09:52;;;;;;;8.68;1.88;;;7.60;99.90;;;;;;5015451;28;20064;-67
2023/12/20 12:12:19;;;;;;;13.27;1.52;;;7.60;99.90;;;;;;5019702;28;20084;-67
2023/12/20 12:14:45;;;;;;;13.93;1.98;;;7.60;99.90;;;;;;5020975;28;20050;-67
2023/12/20 12:17:12;;;;;;;9.82;1.15;;;7.60;99.90;;;;;;5017085;28;20048;-67
2023/12/20 12:19:38;;;;;;;9.50;1.27;;;7.60;99.90;;;;;;5019455;28;20412;-67
2023/12/20 12:22:07;;;;;;;12.32;1.00;;;7.70;99.90;;;;;;5018243;28;20041;-67
2023/12/20 12:24:32;;;;;;;13.30;1.95;;;7.60;99.90;;;;;;5017082;28;20515;-67
2023/12/20 12:26:58;;;;;;;12.85;2.03;;;7.70;99.90;;;;;;5019415;28;20037;-67
2023/12/20 12:29:26;;;;;;;11.70;1.38;;;7.70;99.90;;;;;;5017328;28;20539;-67
2023/12/20 12:31:52;;;;;;;8.35;1.55;;;7.60;99.90;;;;;;5025073;28;20144;-67
2023/12/20 12:34:18;;;;;;;11.88;1.33;;;7.60;99.90;;;;;;5018224;28;20048;-67
2023/12/20 12:36:44;;;;;;;9.35;1.40;;;7.60;99.90;;;;;;5023923;28;20128;-67
2023/12/20 12:39:14;;;;;;;9.77;1.98;;;7.60;99.90;;;;;;5015433;28;20103;-67
2023/12/20 12:41:40;;;;;;;12.40;1.73;;;7.60;99.90;;;;;;5016663;28;20447;-67
2023/12/20 12:44:06;;;;;;;8.40;1.17;;;7.50;99.90;;;;;;5015052;28;20045;-67